Second Thought — WDF8735 — position and weather

sailwx.info

Track history (hours):
 
Tides and Currents Weather Stations Pressure Air Temp Water Temp Dewpoint Dewpoint Depression Visibility Wind Speed Wind Dir Waves Ship Positions

Second Thought

Owner: Barker, Robert P, Laguna Niguel, CA. More information available from US FCC via Universal Licensing System and Coast Guard Vessel Documentation Center.

Last reported at 2015-Jul-09 01:17 UTC. Time now 2015-Sep-01 14:10 UTC.
Position N 47°34' W 122°30'.
Warning: this ship's position is 54 days out of date.

Length 18 m.

Type: Pleasure craft. MMSI: 367498020.

Date/timePositionNaut miles runAvg speedWind from/ knotsBaromVisibWave heightAir tempDewpointWater temp
2015-Jul-09 01:17N 47°34' W 122°30'5 6.4
2015-Jul-09 00:30N 47°34' W 122°37'0 0.0
2015-Jul-08 18:09N 47°34' W 122°37'3 4.5
2015-Jul-08 17:33N 47°35' W 122°34'  
2015-Jul-02 21:24N 47°40' W 122°24'1 1.3
2015-Jul-02 20:27N 47°39' W 122°22'1 0.0
2015-Jul-01 12:27N 47°39' W 122°21'0 0.0
2015-Jul-01 02:32N 47°39' W 122°21'0 0.0
2015-Jul-01 01:29N 47°39' W 122°21'0 0.0
2015-Jun-30 17:29N 47°39' W 122°21'0 0.0
2015-Jun-30 14:11N 47°39' W 122°21'0 0.0
2015-Jun-30 14:11N 47°39' W 122°21'0 0.0
2015-Jun-30 13:26N 47°39' W 122°21'0 0.0
2015-Jun-30 07:23N 47°39' W 122°21'0 0.0
2015-Jun-30 03:32N 47°39' W 122°21'0 0.0
2015-Jun-30 00:11N 47°39' W 122°21'0 0.0
2015-Jun-30 00:08N 47°39' W 122°21'0 0.0
2015-Jun-29 18:47N 47°39' W 122°21'0 0.0
2015-Jun-29 15:17N 47°39' W 122°21'0 0.0
2015-Jun-29 12:05N 47°39' W 122°21'  
Track history (hours):
 
Tides and Currents Weather Stations Pressure Air Temp Water Temp Dewpoint Dewpoint Depression Visibility Wind Speed Wind Dir Waves Ship Positions

Second Thought

Owner: Barker, Robert P, Laguna Niguel, CA. More information available from US FCC via Universal Licensing System and Coast Guard Vessel Documentation Center.

Last reported at 2015-Jul-09 01:17 UTC. Time now 2015-Sep-01 14:10 UTC.
Position N 47°34' W 122°30'.
Warning: this ship's position is 54 days out of date.

Length 18 m.

Type: Pleasure craft. MMSI: 367498020.

Date/timePositionNaut miles runAvg speedWind from/ knotsBaromVisibWave heightAir tempDewpointWater temp
2015-Jul-09 01:17N 47°34' W 122°30'5 6.4
2015-Jul-09 00:30N 47°34' W 122°37'0 0.0
2015-Jul-08 18:09N 47°34' W 122°37'3 4.5
2015-Jul-08 17:33N 47°35' W 122°34'  
2015-Jul-02 21:24N 47°40' W 122°24'1 1.3
2015-Jul-02 20:27N 47°39' W 122°22'1 0.0
2015-Jul-01 12:27N 47°39' W 122°21'0 0.0
2015-Jul-01 02:32N 47°39' W 122°21'0 0.0
2015-Jul-01 01:29N 47°39' W 122°21'0 0.0
2015-Jun-30 17:29N 47°39' W 122°21'0 0.0
2015-Jun-30 14:11N 47°39' W 122°21'0 0.0
2015-Jun-30 14:11N 47°39' W 122°21'0 0.0
2015-Jun-30 13:26N 47°39' W 122°21'0 0.0
2015-Jun-30 07:23N 47°39' W 122°21'0 0.0
2015-Jun-30 03:32N 47°39' W 122°21'0 0.0
2015-Jun-30 00:11N 47°39' W 122°21'0 0.0
2015-Jun-30 00:08N 47°39' W 122°21'0 0.0
2015-Jun-29 18:47N 47°39' W 122°21'0 0.0
2015-Jun-29 15:17N 47°39' W 122°21'0 0.0
2015-Jun-29 12:05N 47°39' W 122°21'  

Dump ship's entire track history